sensor_id;sensor_type;location;lat;lon;timestamp;P1;durP1;ratioP1;P2;durP2;ratioP2
21777;SDS011;11050;52.222;20.916;2022-07-18T00:00:15;4.97;;;3.10;;
21777;SDS011;11050;52.222;20.916;2022-07-18T00:02:41;7.10;;;3.25;;
21777;SDS011;11050;52.222;20.916;2022-07-18T00:05:07;5.60;;;3.20;;
21777;SDS011;11050;52.222;20.916;2022-07-18T00:07:33;6.90;;;3.30;;
21777;SDS011;11050;52.222;20.916;2022-07-18T00:09:59;6.80;;;3.28;;
21777;SDS011;11050;52.222;20.916;2022-07-18T00:12:25;4.65;;;3.42;;
21777;SDS011;11050;52.222;20.916;2022-07-18T00:14:51;8.30;;;3.58;;
21777;SDS011;11050;52.222;20.916;2022-07-18T00:17:17;7.53;;;3.28;;
21777;SDS011;11050;52.222;20.916;2022-07-18T00:19:43;5.03;;;3.22;;
21777;SDS011;11050;52.222;20.916;2022-07-18T00:22:08;5.65;;;3.65;;
21777;SDS011;11050;52.222;20.916;2022-07-18T00:24:35;11.60;;;3.85;;
21777;SDS011;11050;52.222;20.916;2022-07-18T00:27:02;5.47;;;3.25;;
21777;SDS011;11050;52.222;20.916;2022-07-18T00:29:29;7.43;;;3.70;;
21777;SDS011;11050;52.222;20.916;2022-07-18T00:31:55;5.20;;;3.47;;
21777;SDS011;11050;52.222;20.916;2022-07-18T00:34:21;10.27;;;4.07;;
21777;SDS011;11050;52.222;20.916;2022-07-18T00:36:47;6.68;;;3.60;;
21777;SDS011;11050;52.222;20.916;2022-07-18T00:39:14;11.82;;;3.92;;
21777;SDS011;11050;52.222;20.916;2022-07-18T00:41:39;9.15;;;3.72;;
21777;SDS011;11050;52.222;20.916;2022-07-18T00:44:18;9.05;;;3.75;;
21777;SDS011;11050;52.222;20.916;2022-07-18T00:46:49;7.40;;;3.88;;
21777;SDS011;11050;52.222;20.916;2022-07-18T00:49:17;6.60;;;3.65;;
21777;SDS011;11050;52.222;20.916;2022-07-18T00:51:44;5.15;;;3.50;;
21777;SDS011;11050;52.222;20.916;2022-07-18T00:54:10;7.05;;;3.92;;
21777;SDS011;11050;52.222;20.916;2022-07-18T00:56:36;7.07;;;3.13;;
21777;SDS011;11050;52.222;20.916;2022-07-18T00:59:02;5.40;;;3.80;;
21777;SDS011;11050;52.222;20.916;2022-07-18T01:01:28;6.43;;;3.67;;
21777;SDS011;11050;52.222;20.916;2022-07-18T01:04:16;5.00;;;3.38;;
21777;SDS011;11050;52.222;20.916;2022-07-18T01:06:46;8.10;;;4.43;;
21777;SDS011;11050;52.222;20.916;2022-07-18T01:09:13;8.10;;;3.63;;
21777;SDS011;11050;52.222;20.916;2022-07-18T01:11:40;8.60;;;4.40;;
21777;SDS011;11050;52.222;20.916;2022-07-18T01:14:09;5.93;;;3.95;;
21777;SDS011;11050;52.222;20.916;2022-07-18T01:16:35;7.93;;;4.30;;
21777;SDS011;11050;52.222;20.916;2022-07-18T01:19:02;5.53;;;3.60;;
21777;SDS011;11050;52.222;20.916;2022-07-18T01:21:28;9.25;;;3.78;;
21777;SDS011;11050;52.222;20.916;2022-07-18T01:23:54;10.75;;;4.68;;
21777;SDS011;11050;52.222;20.916;2022-07-18T01:26:20;6.10;;;3.88;;
21777;SDS011;11050;52.222;20.916;2022-07-18T01:28:46;6.53;;;3.97;;
21777;SDS011;11050;52.222;20.916;2022-07-18T01:31:12;7.43;;;4.10;;
21777;SDS011;11050;52.222;20.916;2022-07-18T01:33:38;7.00;;;3.92;;
21777;SDS011;11050;52.222;20.916;2022-07-18T01:36:04;7.55;;;3.90;;
21777;SDS011;11050;52.222;20.916;2022-07-18T01:38:32;6.03;;;4.57;;
21777;SDS011;11050;52.222;20.916;2022-07-18T01:40:59;8.25;;;4.10;;
21777;SDS011;11050;52.222;20.916;2022-07-18T01:43:26;11.38;;;4.18;;
21777;SDS011;11050;52.222;20.916;2022-07-18T01:45:53;5.15;;;3.65;;
21777;SDS011;11050;52.222;20.916;2022-07-18T01:48:20;7.25;;;4.45;;
21777;SDS011;11050;52.222;20.916;2022-07-18T01:50:48;7.25;;;4.35;;
21777;SDS011;11050;52.222;20.916;2022-07-18T01:53:15;5.68;;;4.10;;
21777;SDS011;11050;52.222;20.916;2022-07-18T01:55:41;8.05;;;4.50;;
21777;SDS011;11050;52.222;20.916;2022-07-18T01:58:07;6.65;;;4.40;;
21777;SDS011;11050;52.222;20.916;2022-07-18T02:00:33;7.90;;;4.82;;
21777;SDS011;11050;52.222;20.916;2022-07-18T02:02:59;7.13;;;4.50;;
21777;SDS011;11050;52.222;20.916;2022-07-18T02:05:25;6.72;;;4.35;;
21777;SDS011;11050;52.222;20.916;2022-07-18T02:07:50;7.65;;;4.05;;
21777;SDS011;11050;52.222;20.916;2022-07-18T02:10:17;8.43;;;4.30;;
21777;SDS011;11050;52.222;20.916;2022-07-18T02:12:47;10.13;;;4.35;;
21777;SDS011;11050;52.222;20.916;2022-07-18T02:15:14;9.20;;;4.55;;
21777;SDS011;11050;52.222;20.916;2022-07-18T02:17:40;6.97;;;4.60;;
21777;SDS011;11050;52.222;20.916;2022-07-18T02:20:09;5.82;;;4.43;;
21777;SDS011;11050;52.222;20.916;2022-07-18T02:22:37;9.35;;;4.85;;
21777;SDS011;11050;52.222;20.916;2022-07-18T02:25:04;6.60;;;4.10;;
21777;SDS011;11050;52.222;20.916;2022-07-18T02:27:31;6.30;;;4.70;;
21777;SDS011;11050;52.222;20.916;2022-07-18T02:29:58;7.60;;;4.40;;
21777;SDS011;11050;52.222;20.916;2022-07-18T02:32:24;8.73;;;4.57;;
21777;SDS011;11050;52.222;20.916;2022-07-18T02:34:49;10.15;;;4.90;;
21777;SDS011;11050;52.222;20.916;2022-07-18T02:37:16;6.80;;;4.82;;
21777;SDS011;11050;52.222;20.916;2022-07-18T02:39:42;8.70;;;4.80;;
21777;SDS011;11050;52.222;20.916;2022-07-18T02:42:08;6.88;;;4.40;;
21777;SDS011;11050;52.222;20.916;2022-07-18T02:44:35;12.85;;;4.97;;
21777;SDS011;11050;52.222;20.916;2022-07-18T02:47:01;11.55;;;4.90;;
21777;SDS011;11050;52.222;20.916;2022-07-18T02:49:27;8.15;;;4.53;;
21777;SDS011;11050;52.222;20.916;2022-07-18T02:51:54;7.55;;;5.30;;
21777;SDS011;11050;52.222;20.916;2022-07-18T02:54:28;7.80;;;4.45;;
21777;SDS011;11050;52.222;20.916;2022-07-18T02:56:57;8.05;;;5.05;;
21777;SDS011;11050;52.222;20.916;2022-07-18T02:59:23;7.43;;;5.10;;
21777;SDS011;11050;52.222;20.916;2022-07-18T03:01:51;8.63;;;4.85;;
21777;SDS011;11050;52.222;20.916;2022-07-18T03:04:18;8.77;;;5.35;;
21777;SDS011;11050;52.222;20.916;2022-07-18T03:06:45;9.52;;;4.80;;
21777;SDS011;11050;52.222;20.916;2022-07-18T03:09:12;7.50;;;5.10;;
21777;SDS011;11050;52.222;20.916;2022-07-18T03:11:38;6.85;;;4.75;;
21777;SDS011;11050;52.222;20.916;2022-07-18T03:14:04;6.85;;;5.00;;
21777;SDS011;11050;52.222;20.916;2022-07-18T03:16:31;8.10;;;4.72;;
21777;SDS011;11050;52.222;20.916;2022-07-18T03:18:57;9.35;;;5.43;;
21777;SDS011;11050;52.222;20.916;2022-07-18T03:21:23;9.55;;;5.75;;
21777;SDS011;11050;52.222;20.916;2022-07-18T03:23:49;7.82;;;4.88;;
21777;SDS011;11050;52.222;20.916;2022-07-18T03:26:15;9.00;;;5.65;;
21777;SDS011;11050;52.222;20.916;2022-07-18T03:28:41;8.48;;;5.60;;
21777;SDS011;11050;52.222;20.916;2022-07-18T03:31:07;11.63;;;5.82;;
21777;SDS011;11050;52.222;20.916;2022-07-18T03:33:32;11.20;;;5.80;;
21777;SDS011;11050;52.222;20.916;2022-07-18T03:35:58;6.60;;;4.60;;
21777;SDS011;11050;52.222;20.916;2022-07-18T03:38:24;8.80;;;5.72;;
21777;SDS011;11050;52.222;20.916;2022-07-18T03:40:50;8.07;;;5.43;;
21777;SDS011;11050;52.222;20.916;2022-07-18T03:43:16;13.35;;;5.97;;
21777;SDS011;11050;52.222;20.916;2022-07-18T03:45:41;8.05;;;5.50;;
21777;SDS011;11050;52.222;20.916;2022-07-18T03:48:07;7.47;;;5.63;;
21777;SDS011;11050;52.222;20.916;2022-07-18T03:50:33;9.48;;;5.18;;
21777;SDS011;11050;52.222;20.916;2022-07-18T03:52:59;7.13;;;5.15;;
21777;SDS011;11050;52.222;20.916;2022-07-18T03:55:25;9.05;;;5.78;;
21777;SDS011;11050;52.222;20.916;2022-07-18T03:57:51;9.20;;;5.45;;
21777;SDS011;11050;52.222;20.916;2022-07-18T04:00:17;7.50;;;4.97;;
21777;SDS011;11050;52.222;20.916;2022-07-18T04:02:45;10.75;;;4.97;;
21777;SDS011;11050;52.222;20.916;2022-07-18T04:05:13;9.18;;;5.40;;
21777;SDS011;11050;52.222;20.916;2022-07-18T04:07:40;10.50;;;4.97;;
21777;SDS011;11050;52.222;20.916;2022-07-18T04:10:07;8.45;;;4.97;;
21777;SDS011;11050;52.222;20.916;2022-07-18T04:12:35;6.88;;;4.93;;
21777;SDS011;11050;52.222;20.916;2022-07-18T04:15:15;7.18;;;4.22;;
21777;SDS011;11050;52.222;20.916;2022-07-18T04:17:41;9.55;;;5.50;;
21777;SDS011;11050;52.222;20.916;2022-07-18T04:20:08;5.97;;;4.53;;
21777;SDS011;11050;52.222;20.916;2022-07-18T04:25:19;10.43;;;5.55;;
21777;SDS011;11050;52.222;20.916;2022-07-18T04:27:48;7.88;;;4.82;;
21777;SDS011;11050;52.222;20.916;2022-07-18T04:30:15;9.80;;;4.82;;
21777;SDS011;11050;52.222;20.916;2022-07-18T04:32:43;6.38;;;4.28;;
21777;SDS011;11050;52.222;20.916;2022-07-18T04:35:10;6.95;;;4.50;;
21777;SDS011;11050;52.222;20.916;2022-07-18T04:37:39;6.72;;;4.43;;
21777;SDS011;11050;52.222;20.916;2022-07-18T04:40:06;7.93;;;4.20;;
21777;SDS011;11050;52.222;20.916;2022-07-18T04:42:35;9.07;;;4.43;;
21777;SDS011;11050;52.222;20.916;2022-07-18T04:45:03;6.75;;;4.43;;
21777;SDS011;11050;52.222;20.916;2022-07-18T04:47:30;6.90;;;4.47;;
21777;SDS011;11050;52.222;20.916;2022-07-18T04:49:56;7.32;;;4.55;;
21777;SDS011;11050;52.222;20.916;2022-07-18T04:52:22;6.55;;;4.40;;
21777;SDS011;11050;52.222;20.916;2022-07-18T04:54:48;8.20;;;4.85;;
21777;SDS011;11050;52.222;20.916;2022-07-18T04:57:15;7.93;;;4.60;;
21777;SDS011;11050;52.222;20.916;2022-07-18T04:59:42;7.80;;;4.60;;
21777;SDS011;11050;52.222;20.916;2022-07-18T05:02:09;8.10;;;4.50;;
21777;SDS011;11050;52.222;20.916;2022-07-18T05:04:36;9.75;;;4.85;;
21777;SDS011;11050;52.222;20.916;2022-07-18T05:07:04;7.65;;;4.50;;
21777;SDS011;11050;52.222;20.916;2022-07-18T05:09:31;6.05;;;4.20;;
21777;SDS011;11050;52.222;20.916;2022-07-18T05:11:58;6.18;;;4.00;;
21777;SDS011;11050;52.222;20.916;2022-07-18T05:14:24;7.15;;;4.60;;
21777;SDS011;11050;52.222;20.916;2022-07-18T05:16:50;5.15;;;4.20;;
21777;SDS011;11050;52.222;20.916;2022-07-18T05:19:15;8.75;;;4.10;;
21777;SDS011;11050;52.222;20.916;2022-07-18T05:21:44;7.45;;;4.30;;
21777;SDS011;11050;52.222;20.916;2022-07-18T05:24:10;6.45;;;3.90;;
21777;SDS011;11050;52.222;20.916;2022-07-18T05:26:36;7.78;;;4.05;;
21777;SDS011;11050;52.222;20.916;2022-07-18T05:29:02;6.75;;;4.70;;
21777;SDS011;11050;52.222;20.916;2022-07-18T05:31:28;5.32;;;4.53;;
21777;SDS011;11050;52.222;20.916;2022-07-18T05:33:54;7.38;;;4.57;;
21777;SDS011;11050;52.222;20.916;2022-07-18T05:36:20;6.93;;;4.38;;
21777;SDS011;11050;52.222;20.916;2022-07-18T05:38:46;7.72;;;4.20;;
21777;SDS011;11050;52.222;20.916;2022-07-18T05:41:12;6.05;;;4.07;;
21777;SDS011;11050;52.222;20.916;2022-07-18T05:43:37;8.30;;;3.92;;
21777;SDS011;11050;52.222;20.916;2022-07-18T05:46:03;6.80;;;3.65;;
21777;SDS011;11050;52.222;20.916;2022-07-18T05:48:30;7.13;;;3.45;;
21777;SDS011;11050;52.222;20.916;2022-07-18T05:50:56;6.85;;;3.30;;
21777;SDS011;11050;52.222;20.916;2022-07-18T05:53:22;8.27;;;3.65;;
21777;SDS011;11050;52.222;20.916;2022-07-18T05:55:47;5.78;;;3.40;;
21777;SDS011;11050;52.222;20.916;2022-07-18T05:58:13;10.73;;;3.85;;
21777;SDS011;11050;52.222;20.916;2022-07-18T06:00:39;6.88;;;3.50;;
21777;SDS011;11050;52.222;20.916;2022-07-18T06:03:05;6.25;;;3.25;;
21777;SDS011;11050;52.222;20.916;2022-07-18T06:05:31;6.53;;;3.58;;
21777;SDS011;11050;52.222;20.916;2022-07-18T06:07:57;4.70;;;3.13;;
21777;SDS011;11050;52.222;20.916;2022-07-18T06:10:24;4.97;;;3.45;;
21777;SDS011;11050;52.222;20.916;2022-07-18T06:12:51;5.97;;;3.40;;
21777;SDS011;11050;52.222;20.916;2022-07-18T06:15:18;5.35;;;3.35;;
21777;SDS011;11050;52.222;20.916;2022-07-18T06:17:44;7.53;;;3.35;;
21777;SDS011;11050;52.222;20.916;2022-07-18T06:20:10;6.22;;;3.20;;
21777;SDS011;11050;52.222;20.916;2022-07-18T06:22:37;5.65;;;3.60;;
21777;SDS011;11050;52.222;20.916;2022-07-18T06:25:03;8.27;;;3.17;;
21777;SDS011;11050;52.222;20.916;2022-07-18T06:27:30;4.95;;;3.17;;
21777;SDS011;11050;52.222;20.916;2022-07-18T06:29:55;6.03;;;3.33;;
21777;SDS011;11050;52.222;20.916;2022-07-18T06:32:22;5.90;;;3.63;;
21777;SDS011;11050;52.222;20.916;2022-07-18T06:34:47;3.90;;;2.97;;
21777;SDS011;11050;52.222;20.916;2022-07-18T06:37:13;4.57;;;2.80;;
21777;SDS011;11050;52.222;20.916;2022-07-18T06:39:39;7.13;;;2.80;;
21777;SDS011;11050;52.222;20.916;2022-07-18T06:42:05;7.93;;;2.60;;
21777;SDS011;11050;52.222;20.916;2022-07-18T06:44:31;3.97;;;2.53;;
21777;SDS011;11050;52.222;20.916;2022-07-18T06:46:56;9.02;;;3.13;;
21777;SDS011;11050;52.222;20.916;2022-07-18T06:49:24;7.82;;;3.65;;
21777;SDS011;11050;52.222;20.916;2022-07-18T06:51:50;4.72;;;3.25;;
21777;SDS011;11050;52.222;20.916;2022-07-18T06:54:17;6.53;;;3.40;;
21777;SDS011;11050;52.222;20.916;2022-07-18T06:56:45;6.60;;;5.18;;
21777;SDS011;11050;52.222;20.916;2022-07-18T06:59:11;7.10;;;5.10;;
21777;SDS011;11050;52.222;20.916;2022-07-18T07:01:36;5.80;;;4.22;;
21777;SDS011;11050;52.222;20.916;2022-07-18T07:04:02;8.15;;;4.70;;
21777;SDS011;11050;52.222;20.916;2022-07-18T07:06:28;6.15;;;3.97;;
21777;SDS011;11050;52.222;20.916;2022-07-18T07:08:54;7.40;;;4.20;;
21777;SDS011;11050;52.222;20.916;2022-07-18T07:11:20;7.60;;;4.93;;
21777;SDS011;11050;52.222;20.916;2022-07-18T07:13:47;10.40;;;5.93;;
21777;SDS011;11050;52.222;20.916;2022-07-18T07:16:13;9.25;;;5.90;;
21777;SDS011;11050;52.222;20.916;2022-07-18T07:18:39;5.40;;;4.90;;
21777;SDS011;11050;52.222;20.916;2022-07-18T07:21:05;8.00;;;5.43;;
21777;SDS011;11050;52.222;20.916;2022-07-18T07:23:33;7.78;;;5.60;;
21777;SDS011;11050;52.222;20.916;2022-07-18T07:25:59;6.55;;;5.28;;
21777;SDS011;11050;52.222;20.916;2022-07-18T07:28:25;6.80;;;4.72;;
21777;SDS011;11050;52.222;20.916;2022-07-18T07:30:51;6.63;;;4.93;;
21777;SDS011;11050;52.222;20.916;2022-07-18T07:33:17;5.57;;;3.90;;
21777;SDS011;11050;52.222;20.916;2022-07-18T07:35:43;6.32;;;3.95;;
21777;SDS011;11050;52.222;20.916;2022-07-18T07:38:09;5.65;;;3.55;;
21777;SDS011;11050;52.222;20.916;2022-07-18T07:40:42;7.72;;;4.65;;
21777;SDS011;11050;52.222;20.916;2022-07-18T07:43:10;7.60;;;3.75;;
21777;SDS011;11050;52.222;20.916;2022-07-18T07:45:38;4.95;;;3.50;;
21777;SDS011;11050;52.222;20.916;2022-07-18T07:48:05;8.13;;;3.47;;
21777;SDS011;11050;52.222;20.916;2022-07-18T07:50:32;5.30;;;3.35;;
21777;SDS011;11050;52.222;20.916;2022-07-18T07:52:59;6.85;;;3.15;;
21777;SDS011;11050;52.222;20.916;2022-07-18T07:55:26;6.13;;;3.10;;
21777;SDS011;11050;52.222;20.916;2022-07-18T07:57:54;6.68;;;2.90;;
21777;SDS011;11050;52.222;20.916;2022-07-18T08:00:21;5.45;;;2.95;;
21777;SDS011;11050;52.222;20.916;2022-07-18T08:05:26;7.82;;;2.47;;
21777;SDS011;11050;52.222;20.916;2022-07-18T08:07:54;5.90;;;2.50;;
21777;SDS011;11050;52.222;20.916;2022-07-18T08:10:21;5.32;;;2.90;;
21777;SDS011;11050;52.222;20.916;2022-07-18T08:12:47;13.38;;;2.70;;
21777;SDS011;11050;52.222;20.916;2022-07-18T08:15:13;4.45;;;2.38;;
21777;SDS011;11050;52.222;20.916;2022-07-18T08:17:39;5.13;;;2.38;;
21777;SDS011;11050;52.222;20.916;2022-07-18T08:20:05;5.78;;;2.30;;
21777;SDS011;11050;52.222;20.916;2022-07-18T08:22:32;5.20;;;2.33;;
21777;SDS011;11050;52.222;20.916;2022-07-18T08:24:58;6.53;;;2.78;;
21777;SDS011;11050;52.222;20.916;2022-07-18T08:27:24;4.55;;;2.10;;
21777;SDS011;11050;52.222;20.916;2022-07-18T08:29:50;5.88;;;2.30;;
21777;SDS011;11050;52.222;20.916;2022-07-18T08:32:15;3.60;;;2.47;;
21777;SDS011;11050;52.222;20.916;2022-07-18T08:34:41;6.50;;;2.33;;
21777;SDS011;11050;52.222;20.916;2022-07-18T08:37:07;6.43;;;2.08;;
21777;SDS011;11050;52.222;20.916;2022-07-18T08:39:33;7.82;;;2.22;;
21777;SDS011;11050;52.222;20.916;2022-07-18T08:41:59;4.90;;;2.40;;
21777;SDS011;11050;52.222;20.916;2022-07-18T08:44:29;5.13;;;2.47;;
21777;SDS011;11050;52.222;20.916;2022-07-18T08:46:59;5.38;;;2.65;;
21777;SDS011;11050;52.222;20.916;2022-07-18T08:49:27;5.82;;;2.20;;
21777;SDS011;11050;52.222;20.916;2022-07-18T08:51:53;6.18;;;3.03;;
21777;SDS011;11050;52.222;20.916;2022-07-18T08:54:20;5.38;;;2.17;;
21777;SDS011;11050;52.222;20.916;2022-07-18T08:56:46;6.88;;;2.47;;
21777;SDS011;11050;52.222;20.916;2022-07-18T08:59:11;6.47;;;2.20;;
21777;SDS011;11050;52.222;20.916;2022-07-18T09:01:37;6.78;;;2.60;;
21777;SDS011;11050;52.222;20.916;2022-07-18T09:04:03;10.77;;;2.88;;
21777;SDS011;11050;52.222;20.916;2022-07-18T09:06:50;5.25;;;2.20;;
21777;SDS011;11050;52.222;20.916;2022-07-18T09:09:19;4.72;;;2.10;;
21777;SDS011;11050;52.222;20.916;2022-07-18T09:17:19;4.30;;;2.53;;
21777;SDS011;11050;52.222;20.916;2022-07-18T09:22:35;6.20;;;2.45;;
21777;SDS011;11050;52.222;20.916;2022-07-18T09:25:06;2.47;;;2.10;;
21777;SDS011;11050;52.222;20.916;2022-07-18T09:27:42;4.38;;;2.60;;
21777;SDS011;11050;52.222;20.916;2022-07-18T09:35:28;3.10;;;2.13;;
21777;SDS011;11050;52.222;20.916;2022-07-18T09:40:49;6.10;;;2.50;;
21777;SDS011;11050;52.222;20.916;2022-07-18T09:43:18;3.80;;;2.28;;
21777;SDS011;11050;52.222;20.916;2022-07-18T09:45:50;4.05;;;2.00;;
21777;SDS011;11050;52.222;20.916;2022-07-18T09:48:22;5.10;;;2.28;;
21777;SDS011;11050;52.222;20.916;2022-07-18T09:56:05;6.38;;;2.33;;
21777;SDS011;11050;52.222;20.916;2022-07-18T09:58:35;4.90;;;2.30;;
21777;SDS011;11050;52.222;20.916;2022-07-18T10:01:05;3.58;;;2.33;;
21777;SDS011;11050;52.222;20.916;2022-07-18T10:03:35;3.45;;;2.40;;
21777;SDS011;11050;52.222;20.916;2022-07-18T10:06:02;4.65;;;2.17;;
21777;SDS011;11050;52.222;20.916;2022-07-18T10:08:29;5.35;;;2.33;;
21777;SDS011;11050;52.222;20.916;2022-07-18T10:10:58;5.45;;;2.28;;
21777;SDS011;11050;52.222;20.916;2022-07-18T10:13:27;5.72;;;2.35;;
21777;SDS011;11050;52.222;20.916;2022-07-18T10:15:55;3.95;;;2.05;;
21777;SDS011;11050;52.222;20.916;2022-07-18T10:18:23;4.20;;;2.28;;
21777;SDS011;11050;52.222;20.916;2022-07-18T10:20:55;2.72;;;2.00;;
21777;SDS011;11050;52.222;20.916;2022-07-18T10:23:35;5.45;;;2.00;;
21777;SDS011;11050;52.222;20.916;2022-07-18T10:26:14;4.47;;;2.17;;
21777;SDS011;11050;52.222;20.916;2022-07-18T10:31:26;3.13;;;1.98;;
21777;SDS011;11050;52.222;20.916;2022-07-18T10:36:36;3.13;;;2.33;;
21777;SDS011;11050;52.222;20.916;2022-07-18T10:39:15;4.20;;;2.10;;
21777;SDS011;11050;52.222;20.916;2022-07-18T11:00:14;3.65;;;1.90;;
21777;SDS011;11050;52.222;20.916;2022-07-18T11:13:22;3.30;;;1.98;;
21777;SDS011;11050;52.222;20.916;2022-07-18T11:18:22;2.53;;;1.90;;
21777;SDS011;11050;52.222;20.916;2022-07-18T11:20:48;4.88;;;1.88;;
21777;SDS011;11050;52.222;20.916;2022-07-18T11:23:19;3.35;;;2.05;;
21777;SDS011;11050;52.222;20.916;2022-07-18T11:25:50;3.90;;;1.90;;
21777;SDS011;11050;52.222;20.916;2022-07-18T11:28:22;4.72;;;1.85;;
21777;SDS011;11050;52.222;20.916;2022-07-18T11:31:03;3.80;;;2.00;;
21777;SDS011;11050;52.222;20.916;2022-07-18T11:33:33;3.15;;;1.98;;
21777;SDS011;11050;52.222;20.916;2022-07-18T11:36:07;7.85;;;2.20;;
21777;SDS011;11050;52.222;20.916;2022-07-18T11:38:38;3.40;;;1.80;;
21777;SDS011;11050;52.222;20.916;2022-07-18T11:41:16;3.25;;;1.67;;
21777;SDS011;11050;52.222;20.916;2022-07-18T11:43:45;5.45;;;2.40;;
21777;SDS011;11050;52.222;20.916;2022-07-18T11:46:13;4.88;;;1.83;;
21777;SDS011;11050;52.222;20.916;2022-07-18T11:48:43;3.03;;;1.73;;
21777;SDS011;11050;52.222;20.916;2022-07-18T11:51:14;4.97;;;2.15;;
21777;SDS011;11050;52.222;20.916;2022-07-18T11:53:49;2.65;;;1.80;;
21777;SDS011;11050;52.222;20.916;2022-07-18T11:56:18;5.85;;;2.30;;
21777;SDS011;11050;52.222;20.916;2022-07-18T11:58:48;4.43;;;1.90;;
21777;SDS011;11050;52.222;20.916;2022-07-18T12:01:15;3.78;;;1.80;;
21777;SDS011;11050;52.222;20.916;2022-07-18T12:03:43;6.95;;;2.08;;
21777;SDS011;11050;52.222;20.916;2022-07-18T12:06:15;3.47;;;2.38;;
21777;SDS011;11050;52.222;20.916;2022-07-18T12:08:48;3.05;;;1.65;;
21777;SDS011;11050;52.222;20.916;2022-07-18T12:11:32;2.13;;;1.67;;
21777;SDS011;11050;52.222;20.916;2022-07-18T12:14:00;3.80;;;1.77;;
21777;SDS011;11050;52.222;20.916;2022-07-18T12:19:13;4.20;;;1.83;;
21777;SDS011;11050;52.222;20.916;2022-07-18T12:24:24;3.88;;;1.80;;
21777;SDS011;11050;52.222;20.916;2022-07-18T12:27:39;4.05;;;1.65;;
21777;SDS011;11050;52.222;20.916;2022-07-18T12:35:27;4.05;;;1.60;;
21777;SDS011;11050;52.222;20.916;2022-07-18T12:43:25;3.63;;;1.77;;
21777;SDS011;11050;52.222;20.916;2022-07-18T12:45:57;3.80;;;1.92;;
21777;SDS011;11050;52.222;20.916;2022-07-18T12:48:27;2.33;;;1.80;;
21777;SDS011;11050;52.222;20.916;2022-07-18T12:51:04;5.72;;;1.75;;
21777;SDS011;11050;52.222;20.916;2022-07-18T12:53:36;4.20;;;1.85;;
21777;SDS011;11050;52.222;20.916;2022-07-18T12:56:05;2.20;;;1.58;;
21777;SDS011;11050;52.222;20.916;2022-07-18T12:58:32;8.20;;;2.00;;
21777;SDS011;11050;52.222;20.916;2022-07-18T13:00:58;5.68;;;1.88;;
21777;SDS011;11050;52.222;20.916;2022-07-18T13:03:25;2.95;;;1.70;;
21777;SDS011;11050;52.222;20.916;2022-07-18T13:05:51;2.88;;;1.70;;
21777;SDS011;11050;52.222;20.916;2022-07-18T13:08:16;3.15;;;1.90;;
21777;SDS011;11050;52.222;20.916;2022-07-18T13:10:44;3.72;;;1.85;;
21777;SDS011;11050;52.222;20.916;2022-07-18T13:13:10;2.70;;;2.03;;
21777;SDS011;11050;52.222;20.916;2022-07-18T13:15:36;3.08;;;1.65;;
21777;SDS011;11050;52.222;20.916;2022-07-18T13:18:03;2.05;;;1.60;;
21777;SDS011;11050;52.222;20.916;2022-07-18T13:20:30;3.67;;;1.75;;
21777;SDS011;11050;52.222;20.916;2022-07-18T13:22:57;3.22;;;1.77;;
21777;SDS011;11050;52.222;20.916;2022-07-18T13:25:26;3.88;;;1.70;;
21777;SDS011;11050;52.222;20.916;2022-07-18T13:27:52;2.95;;;1.60;;
21777;SDS011;11050;52.222;20.916;2022-07-18T13:30:18;2.55;;;1.50;;
21777;SDS011;11050;52.222;20.916;2022-07-18T13:32:45;5.13;;;1.83;;
21777;SDS011;11050;52.222;20.916;2022-07-18T13:35:11;1.98;;;1.48;;
21777;SDS011;11050;52.222;20.916;2022-07-18T13:37:38;1.80;;;1.42;;
21777;SDS011;11050;52.222;20.916;2022-07-18T13:40:04;2.72;;;1.70;;
21777;SDS011;11050;52.222;20.916;2022-07-18T13:42:31;3.05;;;1.80;;
21777;SDS011;11050;52.222;20.916;2022-07-18T13:44:58;2.78;;;1.73;;
21777;SDS011;11050;52.222;20.916;2022-07-18T13:47:24;2.20;;;1.70;;
21777;SDS011;11050;52.222;20.916;2022-07-18T13:49:50;2.30;;;1.52;;
21777;SDS011;11050;52.222;20.916;2022-07-18T13:52:16;3.97;;;1.30;;
21777;SDS011;11050;52.222;20.916;2022-07-18T13:54:42;2.88;;;1.35;;
21777;SDS011;11050;52.222;20.916;2022-07-18T13:57:08;2.00;;;1.15;;
21777;SDS011;11050;52.222;20.916;2022-07-18T13:59:33;1.75;;;1.55;;
21777;SDS011;11050;52.222;20.916;2022-07-18T14:01:59;1.90;;;1.50;;
21777;SDS011;11050;52.222;20.916;2022-07-18T14:04:25;1.73;;;1.40;;
21777;SDS011;11050;52.222;20.916;2022-07-18T14:06:51;2.83;;;1.50;;
21777;SDS011;11050;52.222;20.916;2022-07-18T14:09:17;4.50;;;1.50;;
21777;SDS011;11050;52.222;20.916;2022-07-18T14:11:43;1.75;;;1.65;;
21777;SDS011;11050;52.222;20.916;2022-07-18T14:14:09;4.95;;;1.40;;
21777;SDS011;11050;52.222;20.916;2022-07-18T14:16:35;2.50;;;1.52;;
21777;SDS011;11050;52.222;20.916;2022-07-18T14:19:02;2.05;;;1.85;;
21777;SDS011;11050;52.222;20.916;2022-07-18T14:21:29;3.40;;;1.75;;
21777;SDS011;11050;52.222;20.916;2022-07-18T14:23:55;3.20;;;1.90;;
21777;SDS011;11050;52.222;20.916;2022-07-18T14:26:21;3.05;;;2.08;;
21777;SDS011;11050;52.222;20.916;2022-07-18T14:28:47;3.65;;;2.00;;
21777;SDS011;11050;52.222;20.916;2022-07-18T14:31:13;2.47;;;2.05;;
21777;SDS011;11050;52.222;20.916;2022-07-18T14:33:39;4.53;;;2.00;;
21777;SDS011;11050;52.222;20.916;2022-07-18T14:36:05;2.75;;;1.88;;
21777;SDS011;11050;52.222;20.916;2022-07-18T14:38:30;3.05;;;1.92;;
21777;SDS011;11050;52.222;20.916;2022-07-18T14:40:56;3.60;;;1.95;;
21777;SDS011;11050;52.222;20.916;2022-07-18T14:43:22;2.50;;;1.80;;
21777;SDS011;11050;52.222;20.916;2022-07-18T14:45:48;4.07;;;2.00;;
21777;SDS011;11050;52.222;20.916;2022-07-18T14:48:14;3.15;;;1.95;;
21777;SDS011;11050;52.222;20.916;2022-07-18T14:50:40;3.67;;;1.90;;
21777;SDS011;11050;52.222;20.916;2022-07-18T14:53:06;1.98;;;1.70;;
21777;SDS011;11050;52.222;20.916;2022-07-18T14:55:32;6.05;;;1.90;;
21777;SDS011;11050;52.222;20.916;2022-07-18T14:57:58;2.83;;;1.75;;
21777;SDS011;11050;52.222;20.916;2022-07-18T15:00:24;4.05;;;2.17;;
21777;SDS011;11050;52.222;20.916;2022-07-18T15:02:49;2.53;;;1.90;;
21777;SDS011;11050;52.222;20.916;2022-07-18T15:05:15;5.72;;;2.30;;
21777;SDS011;11050;52.222;20.916;2022-07-18T15:07:42;2.15;;;1.92;;
21777;SDS011;11050;52.222;20.916;2022-07-18T15:10:08;2.20;;;1.77;;
21777;SDS011;11050;52.222;20.916;2022-07-18T15:12:34;3.97;;;1.63;;
21777;SDS011;11050;52.222;20.916;2022-07-18T15:15:00;3.40;;;1.90;;
21777;SDS011;11050;52.222;20.916;2022-07-18T15:17:26;2.35;;;1.65;;
21777;SDS011;11050;52.222;20.916;2022-07-18T15:19:52;5.75;;;2.03;;
21777;SDS011;11050;52.222;20.916;2022-07-18T15:22:18;2.55;;;1.73;;
21777;SDS011;11050;52.222;20.916;2022-07-18T15:24:44;3.08;;;1.80;;
21777;SDS011;11050;52.222;20.916;2022-07-18T15:27:10;3.90;;;1.83;;
21777;SDS011;11050;52.222;20.916;2022-07-18T15:29:36;2.13;;;1.70;;
21777;SDS011;11050;52.222;20.916;2022-07-18T15:32:02;6.80;;;2.22;;
21777;SDS011;11050;52.222;20.916;2022-07-18T15:34:33;3.42;;;1.73;;
21777;SDS011;11050;52.222;20.916;2022-07-18T15:37:03;4.63;;;2.08;;
21777;SDS011;11050;52.222;20.916;2022-07-18T15:39:30;3.40;;;1.95;;
21777;SDS011;11050;52.222;20.916;2022-07-18T15:41:57;2.30;;;2.10;;
21777;SDS011;11050;52.222;20.916;2022-07-18T15:44:24;5.32;;;2.65;;
21777;SDS011;11050;52.222;20.916;2022-07-18T15:46:50;3.50;;;2.13;;
21777;SDS011;11050;52.222;20.916;2022-07-18T15:49:16;4.75;;;2.30;;
21777;SDS011;11050;52.222;20.916;2022-07-18T15:51:42;4.07;;;2.20;;
21777;SDS011;11050;52.222;20.916;2022-07-18T15:54:11;4.05;;;2.22;;